Time;durP1;ratioP1;P1;durP2;ratioP2;P2;SDS_P1;SDS_P2;PMS_P1;PMS_P2;Temp;Humidity;BMP_temperature;BMP_pressure;BME280_temperature;BME280_humidity;BME280_pressure;Samples;Min_cycle;Max_cycle;Signal;HPM_P1;HPM_P2
2023/11/10 00:01:08;;;;;;;4.97;1.75;;;7.50;99.90;;;;;;5076132;28;20032;-68
2023/11/10 00:03:33;;;;;;;5.35;1.70;;;7.50;99.90;;;;;;5075553;28;20367;-68
2023/11/10 00:05:59;;;;;;;5.78;1.33;;;7.40;99.90;;;;;;5076012;28;20055;-68
2023/11/10 00:08:24;;;;;;;5.88;2.08;;;7.50;99.90;;;;;;5075275;28;20074;-68
2023/11/10 00:10:51;;;;;;;2.65;1.50;;;7.40;99.90;;;;;;5075427;28;20021;-68
2023/11/10 00:13:18;;;;;;;4.43;1.52;;;7.50;99.90;;;;;;5075766;28;20025;-67
2023/11/10 00:15:43;;;;;;;4.40;1.83;;;7.50;99.90;;;;;;5075629;28;20051;-67
2023/11/10 00:18:09;;;;;;;2.50;1.33;;;7.50;99.90;;;;;;5075652;28;20111;-67
2023/11/10 00:20:36;;;;;;;8.57;1.60;;;7.70;99.90;;;;;;5075614;28;20371;-67
2023/11/10 00:23:03;;;;;;;4.97;1.75;;;7.50;99.90;;;;;;5075560;28;20017;-68
2023/11/10 00:25:28;;;;;;;6.60;1.88;;;7.60;99.90;;;;;;5074912;28;20024;-67
2023/11/10 00:27:54;;;;;;;8.07;1.63;;;7.60;99.90;;;;;;5075061;28;20024;-68
2023/11/10 00:30:20;;;;;;;5.45;1.52;;;7.70;99.90;;;;;;5075219;28;20029;-76
2023/11/10 00:32:45;;;;;;;7.07;1.92;;;7.70;99.90;;;;;;5075375;28;20036;-68
2023/11/10 00:35:11;;;;;;;6.05;1.73;;;7.70;99.90;;;;;;5075061;28;20029;-68
2023/11/10 00:37:36;;;;;;;5.93;2.13;;;7.70;99.90;;;;;;5075305;28;20028;-68
2023/11/10 00:40:02;;;;;;;7.55;2.08;;;7.70;99.90;;;;;;5074468;28;20033;-68
2023/11/10 00:42:28;;;;;;;7.70;1.83;;;7.70;99.90;;;;;;5075269;28;20102;-68
2023/11/10 00:44:56;;;;;;;10.38;2.13;;;7.70;99.90;;;;;;5075230;28;20048;-68
2023/11/10 00:47:21;;;;;;;5.82;2.17;;;7.70;99.90;;;;;;5074434;28;20025;-67
2023/11/10 00:49:47;;;;;;;9.07;2.08;;;7.70;99.90;;;;;;5074861;28;20451;-68
2023/11/10 00:52:13;;;;;;;5.70;2.17;;;7.70;99.90;;;;;;5074569;28;20116;-68
2023/11/10 00:54:38;;;;;;;7.07;2.13;;;7.70;99.90;;;;;;5074136;28;20078;-67
2023/11/10 00:57:04;;;;;;;5.68;2.05;;;7.70;99.90;;;;;;5073710;28;20106;-67
2023/11/10 00:59:30;;;;;;;6.28;2.00;;;7.60;99.90;;;;;;5074624;28;20029;-68
2023/11/10 01:01:55;;;;;;;5.45;1.98;;;7.70;99.90;;;;;;5074658;28;20028;-67
2023/11/10 01:04:21;;;;;;;7.22;2.10;;;7.70;99.90;;;;;;5074744;28;20031;-67
2023/11/10 01:06:46;;;;;;;9.43;2.03;;;7.60;99.90;;;;;;5074513;28;20064;-67
2023/11/10 01:09:12;;;;;;;6.53;1.88;;;7.50;99.90;;;;;;5074816;28;20028;-68
2023/11/10 01:11:38;;;;;;;4.60;2.22;;;7.40;99.90;;;;;;5074472;28;20032;-67
2023/11/10 01:14:04;;;;;;;7.30;1.90;;;7.40;99.90;;;;;;5074721;28;20098;-67
2023/11/10 01:16:30;;;;;;;4.88;1.80;;;7.40;99.90;;;;;;5073808;28;20031;-67
2023/11/10 01:18:56;;;;;;;7.32;1.98;;;7.50;99.90;;;;;;5074185;28;20366;-68
2023/11/10 01:21:21;;;;;;;4.60;1.13;;;7.40;99.90;;;;;;5074272;28;20029;-68
2023/11/10 01:23:48;;;;;;;4.47;1.40;;;7.40;99.90;;;;;;5074245;28;20021;-67
2023/11/10 01:26:15;;;;;;;5.13;1.88;;;7.40;99.90;;;;;;5074553;28;20508;-68
2023/11/10 01:28:41;;;;;;;7.00;1.58;;;7.30;99.90;;;;;;5074147;28;20489;-68
2023/11/10 01:31:07;;;;;;;4.15;1.30;;;7.30;99.90;;;;;;5074170;28;20025;-69
2023/11/10 01:33:32;;;;;;;6.32;1.13;;;7.20;99.90;;;;;;5074337;28;20514;-68
2023/11/10 01:35:58;;;;;;;5.22;1.30;;;7.20;99.90;;;;;;5074312;28;20039;-68
2023/11/10 01:38:23;;;;;;;3.72;1.13;;;7.20;99.90;;;;;;5074066;28;20371;-67
2023/11/10 01:40:50;;;;;;;2.17;1.20;;;7.20;99.90;;;;;;5073974;28;20028;-67
2023/11/10 01:43:16;;;;;;;4.63;1.40;;;7.30;99.90;;;;;;5074366;28;20025;-67
2023/11/10 01:45:42;;;;;;;5.78;1.80;;;7.30;99.90;;;;;;5074063;28;20056;-68
2023/11/10 01:48:12;;;;;;;5.40;1.00;;;7.30;99.90;;;;;;5073914;28;20039;-67
2023/11/10 01:50:39;;;;;;;5.57;1.42;;;7.30;99.90;;;;;;5074125;28;20043;-67
2023/11/10 01:53:07;;;;;;;6.82;1.35;;;7.30;99.90;;;;;;5073552;28;20482;-67
2023/11/10 01:55:33;;;;;;;7.57;1.30;;;7.30;99.90;;;;;;5073078;28;20071;-68
2023/11/10 01:57:59;;;;;;;3.78;1.48;;;7.30;99.90;;;;;;5073754;28;20038;-68
2023/11/10 02:00:30;;;;;;;3.72;1.45;;;7.30;99.90;;;;;;5073912;28;20418;-67
2023/11/10 02:02:58;;;;;;;3.35;1.40;;;7.40;99.90;;;;;;5074071;28;20020;-67
2023/11/10 02:05:24;;;;;;;2.78;1.27;;;7.40;99.90;;;;;;5074038;28;20025;-67
2023/11/10 02:07:50;;;;;;;2.55;1.13;;;7.30;99.90;;;;;;5073349;28;20017;-67
2023/11/10 02:10:15;;;;;;;2.55;1.27;;;7.40;99.90;;;;;;5073439;28;20509;-67
2023/11/10 02:12:51;;;;;;;3.63;1.30;;;7.40;99.90;;;;;;5073927;28;20056;-67
2023/11/10 02:15:17;;;;;;;3.38;1.10;;;7.40;99.90;;;;;;5073971;28;20107;-67
2023/11/10 02:17:42;;;;;;;2.83;1.00;;;7.50;99.90;;;;;;5073698;28;20467;-67
2023/11/10 02:20:09;;;;;;;3.38;1.30;;;7.50;99.90;;;;;;5073897;28;20036;-67
2023/11/10 02:22:34;;;;;;;2.30;1.33;;;7.60;99.90;;;;;;5073547;28;20473;-67
2023/11/10 02:25:03;;;;;;;5.32;1.25;;;7.60;99.90;;;;;;5073907;28;20025;-67
2023/11/10 02:27:28;;;;;;;2.95;1.05;;;7.60;99.90;;;;;;5073658;28;20037;-67
2023/11/10 02:29:54;;;;;;;3.72;1.20;;;7.60;99.90;;;;;;5073809;28;20032;-67
2023/11/10 02:32:19;;;;;;;3.13;1.10;;;7.50;99.90;;;;;;5073578;28;20066;-67
2023/11/10 02:34:45;;;;;;;3.13;1.50;;;7.50;99.90;;;;;;5073815;28;20032;-67
2023/11/10 02:37:13;;;;;;;3.75;1.33;;;7.50;99.90;;;;;;5072876;28;20060;-67
2023/11/10 02:39:39;;;;;;;2.47;1.10;;;7.40;99.90;;;;;;5073681;28;20028;-67
2023/11/10 02:42:05;;;;;;;10.10;1.67;;;7.30;99.90;;;;;;5072878;28;20474;-67
2023/11/10 02:44:30;;;;;;;5.72;1.48;;;7.40;99.90;;;;;;5073632;28;20078;-67
2023/11/10 02:46:56;;;;;;;3.17;1.42;;;7.40;99.90;;;;;;5072914;28;20471;-67
2023/11/10 02:49:21;;;;;;;6.63;1.95;;;7.40;99.90;;;;;;5073072;28;20437;-67
2023/11/10 02:51:47;;;;;;;2.17;1.50;;;7.30;99.90;;;;;;5073611;28;20039;-67
2023/11/10 02:54:13;;;;;;;3.70;1.50;;;7.30;99.90;;;;;;5072899;28;20028;-67
2023/11/10 02:56:38;;;;;;;2.88;1.50;;;7.20;99.90;;;;;;5072522;28;20098;-67
2023/11/10 02:59:04;;;;;;;3.45;1.50;;;7.10;99.90;;;;;;5073540;28;20371;-67
2023/11/10 03:01:30;;;;;;;4.05;1.33;;;7.10;99.90;;;;;;5072656;28;20025;-67
2023/11/10 03:03:56;;;;;;;6.43;1.45;;;7.00;99.90;;;;;;5075041;28;20036;-67
2023/11/10 03:06:21;;;;;;;5.78;1.63;;;7.00;99.90;;;;;;5076823;28;20020;-67
2023/11/10 03:08:47;;;;;;;2.30;1.20;;;6.90;99.90;;;;;;5077154;28;20102;-67
2023/11/10 03:11:13;;;;;;;1.58;1.05;;;7.00;99.90;;;;;;5076138;28;20035;-67
2023/11/10 03:13:41;;;;;;;7.75;1.30;;;6.90;99.90;;;;;;5076420;28;20029;-67
2023/11/10 03:16:08;;;;;;;9.30;1.40;;;6.90;99.90;;;;;;5076463;28;20086;-67
2023/11/10 03:18:34;;;;;;;5.93;2.05;;;7.00;99.90;;;;;;5076935;28;20020;-67
2023/11/10 03:21:00;;;;;;;4.53;1.35;;;7.00;99.90;;;;;;5076821;28;20024;-67
2023/11/10 03:23:26;;;;;;;2.63;1.25;;;7.10;99.90;;;;;;5076273;28;20056;-67
2023/11/10 03:25:52;;;;;;;5.15;1.25;;;7.10;99.90;;;;;;5076680;28;20082;-67
2023/11/10 03:28:18;;;;;;;6.43;1.20;;;7.10;99.90;;;;;;5076662;28;20035;-67
2023/11/10 03:30:44;;;;;;;3.85;1.40;;;7.20;99.90;;;;;;5076702;28;20453;-70
2023/11/10 03:33:09;;;;;;;5.97;1.48;;;7.30;99.90;;;;;;5075950;28;20024;-67
2023/11/10 03:35:35;;;;;;;9.23;2.28;;;7.30;99.90;;;;;;5076548;28;20055;-67
2023/11/10 03:38:00;;;;;;;5.30;1.48;;;7.40;99.90;;;;;;5076499;28;20036;-67
2023/11/10 03:40:26;;;;;;;3.90;1.40;;;7.40;99.90;;;;;;5076568;28;20050;-67
2023/11/10 03:42:51;;;;;;;3.70;1.30;;;7.50;99.90;;;;;;5076428;28;20081;-67
2023/11/10 03:45:17;;;;;;;5.00;1.75;;;7.60;99.90;;;;;;5075868;28;20119;-67
2023/11/10 03:47:43;;;;;;;5.15;1.10;;;7.50;99.90;;;;;;5076296;28;20029;-69
2023/11/10 03:50:08;;;;;;;4.97;1.23;;;7.60;99.90;;;;;;5076244;28;20021;-67
2023/11/10 03:52:34;;;;;;;3.35;1.30;;;7.60;99.90;;;;;;5075768;28;20028;-67
2023/11/10 03:55:00;;;;;;;7.72;1.40;;;7.60;99.90;;;;;;5075920;28;20028;-67
2023/11/10 03:57:25;;;;;;;3.88;1.55;;;7.60;99.90;;;;;;5075862;28;20086;-67
2023/11/10 03:59:51;;;;;;;5.50;1.52;;;7.60;99.90;;;;;;5076120;28;20074;-67
2023/11/10 04:02:16;;;;;;;3.88;1.02;;;7.60;99.90;;;;;;5076032;28;20029;-67
2023/11/10 04:04:42;;;;;;;3.08;1.30;;;7.60;99.90;;;;;;5075352;28;20382;-67
2023/11/10 04:07:08;;;;;;;2.10;1.15;;;7.60;99.90;;;;;;5076063;28;20036;-67
2023/11/10 04:09:34;;;;;;;6.00;1.35;;;7.60;99.90;;;;;;5075375;28;20025;-67
2023/11/10 04:12:01;;;;;;;4.18;1.42;;;7.60;99.90;;;;;;5075577;28;20060;-67
2023/11/10 04:14:27;;;;;;;5.65;1.30;;;7.70;99.90;;;;;;5075193;28;20030;-69
2023/11/10 04:16:52;;;;;;;4.90;1.42;;;7.60;99.90;;;;;;5075327;28;20119;-67
2023/11/10 04:19:18;;;;;;;2.92;1.30;;;7.60;99.90;;;;;;5075535;28;20527;-67
2023/11/10 04:21:44;;;;;;;4.20;1.50;;;7.70;99.90;;;;;;5075678;28;20017;-67
2023/11/10 04:24:11;;;;;;;9.13;1.40;;;7.70;99.90;;;;;;5074678;28;20017;-67
2023/11/10 04:26:37;;;;;;;4.38;1.58;;;7.70;99.90;;;;;;5075626;28;20424;-67
2023/11/10 04:29:05;;;;;;;4.72;1.73;;;7.70;99.90;;;;;;5075557;28;20534;-67
2023/11/10 04:31:31;;;;;;;5.03;1.73;;;7.70;99.90;;;;;;5075245;28;20036;-67
2023/11/10 04:33:57;;;;;;;5.20;1.40;;;7.70;99.90;;;;;;5075469;28;20017;-67
2023/11/10 04:36:22;;;;;;;5.05;1.20;;;7.70;99.90;;;;;;5074638;28;20035;-67
2023/11/10 04:38:48;;;;;;;6.72;1.50;;;7.70;99.90;;;;;;5074989;28;20036;-67
2023/11/10 04:41:16;;;;;;;6.88;1.65;;;7.70;99.90;;;;;;5074439;28;20032;-67
2023/11/10 04:43:42;;;;;;;3.70;1.52;;;7.70;99.90;;;;;;5074778;28;20378;-67
2023/11/10 04:46:08;;;;;;;4.22;1.70;;;7.70;99.90;;;;;;5073960;28;20123;-67
2023/11/10 04:48:33;;;;;;;5.07;1.70;;;7.70;99.90;;;;;;5075126;28;20171;-67
2023/11/10 04:51:03;;;;;;;10.13;1.90;;;7.70;99.90;;;;;;5074227;28;20095;-67
2023/11/10 04:53:28;;;;;;;3.10;1.77;;;7.70;99.90;;;;;;5074501;28;20551;-67
2023/11/10 04:55:54;;;;;;;3.35;1.55;;;7.70;99.90;;;;;;5074371;28;20044;-67
2023/11/10 04:58:20;;;;;;;5.30;1.58;;;7.70;99.90;;;;;;5073911;28;20021;-67
2023/11/10 05:00:45;;;;;;;5.45;1.60;;;7.70;99.90;;;;;;5074690;28;20063;-67
2023/11/10 05:03:12;;;;;;;8.20;1.95;;;7.70;99.90;;;;;;5074852;28;20417;-67
2023/11/10 05:05:37;;;;;;;2.67;1.17;;;7.70;99.90;;;;;;5074287;28;20066;-67
2023/11/10 05:08:03;;;;;;;9.77;2.17;;;7.70;99.90;;;;;;5074177;28;20029;-67
2023/11/10 05:10:30;;;;;;;5.32;1.73;;;7.70;99.90;;;;;;5074188;28;20048;-67
2023/11/10 05:12:55;;;;;;;6.00;1.67;;;7.70;99.90;;;;;;5074707;28;20028;-67
2023/11/10 05:15:21;;;;;;;3.67;1.90;;;7.70;99.90;;;;;;5074256;28;20039;-67
2023/11/10 05:17:47;;;;;;;4.13;1.50;;;7.70;99.90;;;;;;5073733;28;20024;-67
2023/11/10 05:20:14;;;;;;;4.55;1.80;;;7.70;99.90;;;;;;5074479;28;20044;-67
2023/11/10 05:22:41;;;;;;;6.13;1.95;;;7.70;99.90;;;;;;5074252;28;20020;-67
2023/11/10 05:25:07;;;;;;;3.63;1.48;;;7.70;99.90;;;;;;5074576;28;20475;-67
2023/11/10 05:27:33;;;;;;;7.80;1.48;;;7.70;99.90;;;;;;5073711;28;20051;-67
2023/11/10 05:29:58;;;;;;;4.25;1.70;;;7.70;99.90;;;;;;5074375;28;20028;-67
2023/11/10 05:32:25;;;;;;;8.48;2.30;;;7.70;99.90;;;;;;5073918;28;20518;-67
2023/11/10 05:34:51;;;;;;;3.10;1.60;;;7.70;99.90;;;;;;5074060;28;20020;-67
2023/11/10 05:37:18;;;;;;;5.43;1.65;;;7.70;99.90;;;;;;5073501;28;20021;-67
2023/11/10 05:39:46;;;;;;;5.82;1.85;;;7.70;99.90;;;;;;5074049;28;20371;-67
2023/11/10 05:42:13;;;;;;;3.28;1.65;;;7.60;99.90;;;;;;5074304;28;20021;-67
2023/11/10 05:44:38;;;;;;;5.78;2.13;;;7.70;99.90;;;;;;5074334;28;20032;-67
2023/11/10 05:47:04;;;;;;;9.02;2.20;;;7.70;99.90;;;;;;5074040;28;20093;-67
2023/11/10 05:49:29;;;;;;;5.18;1.95;;;7.70;99.90;;;;;;5074162;28;20055;-67
2023/11/10 05:51:55;;;;;;;6.78;2.10;;;7.70;99.90;;;;;;5073616;28;20030;-67
2023/11/10 05:54:20;;;;;;;3.45;2.17;;;7.60;99.90;;;;;;5073877;28;20105;-67
2023/11/10 05:56:46;;;;;;;3.30;1.60;;;7.60;99.90;;;;;;5072872;28;20106;-67
2023/11/10 05:59:11;;;;;;;4.40;1.75;;;7.60;99.90;;;;;;5073793;28;20440;-67
2023/11/10 06:01:37;;;;;;;3.58;1.80;;;7.60;99.90;;;;;;5073725;28;20020;-67
2023/11/10 06:04:03;;;;;;;8.23;2.10;;;7.60;99.90;;;;;;5073620;28;20020;-66
2023/11/10 06:06:29;;;;;;;4.93;2.05;;;7.60;99.90;;;;;;5073130;28;20036;-67
2023/11/10 06:08:55;;;;;;;7.70;2.05;;;7.60;99.90;;;;;;5073846;28;20031;-67
2023/11/10 06:11:22;;;;;;;4.93;2.15;;;7.70;99.90;;;;;;5073568;28;20056;-67
2023/11/10 06:13:49;;;;;;;8.48;2.45;;;7.70;99.90;;;;;;5073522;28;20029;-67
2023/11/10 06:16:16;;;;;;;8.68;2.50;;;7.70;99.90;;;;;;5073381;28;20032;-67
2023/11/10 06:18:44;;;;;;;7.97;2.20;;;7.60;99.90;;;;;;5073419;28;20056;-67
2023/11/10 06:21:11;;;;;;;12.73;2.35;;;7.50;99.90;;;;;;5073921;28;20542;-67
2023/11/10 06:23:37;;;;;;;10.93;2.17;;;7.50;99.90;;;;;;5073957;28;20040;-67
2023/11/10 06:26:03;;;;;;;7.07;2.30;;;7.50;99.90;;;;;;5073926;28;20025;-68
2023/11/10 06:28:28;;;;;;;8.48;2.33;;;7.50;99.90;;;;;;5073581;28;20090;-76
2023/11/10 06:30:55;;;;;;;6.07;2.13;;;7.60;99.90;;;;;;5073826;28;20032;-67
2023/11/10 06:33:21;;;;;;;7.53;2.53;;;7.60;99.90;;;;;;5073472;28;20024;-67
2023/11/10 06:35:47;;;;;;;8.07;2.00;;;7.60;99.90;;;;;;5073305;28;20030;-67
2023/11/10 06:38:13;;;;;;;7.32;2.10;;;7.60;99.90;;;;;;5074485;28;20029;-67
2023/11/10 06:40:39;;;;;;;6.85;2.55;;;7.60;99.90;;;;;;5077327;28;20565;-67
2023/11/10 06:43:04;;;;;;;6.85;2.10;;;7.70;99.90;;;;;;5077260;28;20063;-67
2023/11/10 06:45:30;;;;;;;8.77;2.58;;;7.70;99.90;;;;;;5076507;28;20078;-67
2023/11/10 06:47:59;;;;;;;5.97;2.30;;;7.70;99.90;;;;;;5077397;28;20086;-67
2023/11/10 06:50:24;;;;;;;9.60;2.38;;;7.70;99.90;;;;;;5077053;28;20409;-67
2023/11/10 06:52:51;;;;;;;6.47;1.90;;;7.70;99.90;;;;;;5077017;28;20031;-67
2023/11/10 06:55:17;;;;;;;6.80;2.00;;;7.70;99.90;;;;;;5076274;28;20119;-67
2023/11/10 06:57:44;;;;;;;11.25;2.38;;;7.70;99.90;;;;;;5076628;28;20124;-67
2023/11/10 07:00:11;;;;;;;9.27;2.53;;;7.80;99.90;;;;;;5076977;28;20025;-67
2023/11/10 07:02:37;;;;;;;6.03;2.10;;;7.80;99.90;;;;;;5076952;28;20050;-67
2023/11/10 07:05:03;;;;;;;9.40;2.28;;;7.80;99.90;;;;;;5076420;28;20020;-67
2023/11/10 07:07:30;;;;;;;5.68;2.33;;;7.80;99.90;;;;;;5077078;28;20060;-68
2023/11/10 07:09:59;;;;;;;7.00;1.98;;;7.80;99.90;;;;;;5076757;28;20028;-67
2023/11/10 07:12:25;;;;;;;4.70;1.77;;;7.80;99.90;;;;;;5076772;28;20035;-67
2023/11/10 07:14:51;;;;;;;14.93;3.08;;;7.80;99.90;;;;;;5076673;28;20037;-67
2023/11/10 07:17:17;;;;;;;5.38;2.03;;;7.90;99.90;;;;;;5076665;28;20035;-67
2023/11/10 07:19:44;;;;;;;5.05;1.83;;;8.00;99.90;;;;;;5076671;28;20017;-67
2023/11/10 07:22:09;;;;;;;9.60;2.15;;;7.90;99.90;;;;;;5076770;28;20021;-67
2023/11/10 07:24:35;;;;;;;8.40;2.17;;;7.90;99.90;;;;;;5076859;28;20541;-67
2023/11/10 07:27:01;;;;;;;5.60;1.73;;;8.00;99.90;;;;;;5076393;28;20119;-67
2023/11/10 07:29:27;;;;;;;5.32;2.08;;;8.00;99.90;;;;;;5076658;28;20103;-67
2023/11/10 07:31:53;;;;;;;5.30;2.22;;;8.00;99.90;;;;;;5076673;28;20083;-67
2023/11/10 07:34:18;;;;;;;8.50;2.60;;;8.00;99.90;;;;;;5076332;28;20428;-68
2023/11/10 07:36:44;;;;;;;9.90;2.35;;;8.10;99.90;;;;;;5076307;28;20033;-68
2023/11/10 07:39:11;;;;;;;10.30;2.25;;;8.10;99.90;;;;;;5075883;28;20104;-68
2023/11/10 07:41:37;;;;;;;10.95;2.33;;;8.10;99.90;;;;;;5075993;28;20028;-68
2023/11/10 07:44:03;;;;;;;5.57;2.20;;;8.20;99.90;;;;;;5075404;28;20386;-67
2023/11/10 07:46:29;;;;;;;7.80;2.15;;;8.10;99.90;;;;;;5076341;28;20045;-68
2023/11/10 07:48:55;;;;;;;7.75;2.40;;;8.20;99.90;;;;;;5075770;28;20142;-68
2023/11/10 07:51:25;;;;;;;10.05;2.75;;;8.10;99.90;;;;;;5076209;28;20063;-68
2023/11/10 07:53:50;;;;;;;10.57;2.47;;;8.10;99.90;;;;;;5076295;28;20033;-68
2023/11/10 07:56:16;;;;;;;7.90;2.63;;;8.20;99.90;;;;;;5074896;28;20033;-68
2023/11/10 07:58:42;;;;;;;9.07;2.60;;;8.20;99.90;;;;;;5076222;28;20115;-68
2023/11/10 08:01:08;;;;;;;7.97;2.78;;;8.20;99.90;;;;;;5075191;28;20078;-68
2023/11/10 08:03:33;;;;;;;6.10;2.38;;;8.20;99.90;;;;;;5075665;28;20033;-68
2023/11/10 08:05:59;;;;;;;9.32;2.47;;;8.30;99.90;;;;;;5074862;28;20067;-68
2023/11/10 08:08:24;;;;;;;8.60;2.65;;;8.20;99.90;;;;;;5075274;28;20052;-68
2023/11/10 08:10:50;;;;;;;8.68;2.47;;;8.30;99.90;;;;;;5075089;28;20074;-68
2023/11/10 08:13:16;;;;;;;6.35;2.38;;;8.40;99.90;;;;;;5075835;28;20386;-68
2023/11/10 08:15:43;;;;;;;12.38;2.90;;;8.40;99.90;;;;;;5074479;28;20557;-68
2023/11/10 08:18:11;;;;;;;10.25;2.65;;;8.50;99.90;;;;;;5074646;28;20559;-68
2023/11/10 08:20:36;;;;;;;6.28;2.90;;;8.50;99.90;;;;;;5074918;28;20028;-68
2023/11/10 08:23:02;;;;;;;9.15;2.85;;;8.60;99.90;;;;;;5074757;28;20432;-68
2023/11/10 08:25:28;;;;;;;6.68;2.22;;;8.70;99.90;;;;;;5075333;28;20180;-68
2023/11/10 08:27:54;;;;;;;5.88;1.80;;;8.70;99.90;;;;;;5074701;28;20032;-68
2023/11/10 08:30:21;;;;;;;5.57;1.70;;;8.80;95.70;;;;;;5074824;28;20102;-67
2023/11/10 08:32:47;;;;;;;4.88;1.95;;;9.30;99.10;;;;;;5075475;28;20371;-68
2023/11/10 08:35:15;;;;;;;5.72;1.70;;;9.60;28.40;;;;;;5074908;28;20030;-68
2023/11/10 08:37:41;;;;;;;5.93;1.77;;;10.40;18.10;;;;;;5074459;28;20028;-68
2023/11/10 08:40:09;;;;;;;6.78;1.80;;;11.10;1.00;;;;;;5075224;28;20017;-68
2023/11/10 08:42:38;;;;;;;6.85;1.58;;;11.80;1.00;;;;;;5075164;28;20028;-68
2023/11/10 08:45:05;;;;;;;5.60;1.50;;;12.10;99.90;;;;;;5074897;28;20524;-65
2023/11/10 08:47:31;;;;;;;7.03;1.75;;;12.40;99.90;;;;;;5075092;28;20038;-68
2023/11/10 08:49:57;;;;;;;5.82;1.80;;;11.90;99.90;;;;;;5075065;28;20370;-68
2023/11/10 08:52:24;;;;;;;4.03;1.90;;;12.00;99.90;;;;;;5074343;28;20055;-68
2023/11/10 08:54:53;;;;;;;5.82;2.10;;;11.70;99.90;;;;;;5074399;28;20078;-68
2023/11/10 08:57:18;;;;;;;5.80;1.88;;;12.00;99.90;;;;;;5074818;28;20399;-68
2023/11/10 08:59:44;;;;;;;5.38;2.05;;;12.30;99.90;;;;;;5074987;28;20024;-68
2023/11/10 09:02:09;;;;;;;7.03;2.17;;;12.10;99.90;;;;;;5074222;28;20029;-68
2023/11/10 09:04:35;;;;;;;6.55;2.45;;;11.40;99.90;;;;;;5074015;28;20542;-68
2023/11/10 09:07:00;;;;;;;7.18;2.53;;;10.70;1.00;;;;;;5074557;28;20033;-68
2023/11/10 09:09:26;;;;;;;6.50;2.17;;;10.50;1.00;;;;;;5074744;28;20371;-68
2023/11/10 09:11:52;;;;;;;6.50;2.33;;;10.60;1.00;;;;;;5073871;28;20479;-68
2023/11/10 09:14:17;;;;;;;7.63;2.40;;;10.50;1.00;;;;;;5073723;28;20534;-68
2023/11/10 09:16:44;;;;;;;5.07;2.55;;;10.60;1.00;;;;;;5074030;28;20038;-69
2023/11/10 09:19:10;;;;;;;3.50;1.90;;;10.90;1.00;;;;;;5074225;28;20033;-68
2023/11/10 09:21:35;;;;;;;6.43;2.25;;;11.00;1.00;;;;;;5074524;28;20459;-68
2023/11/10 09:24:02;;;;;;;4.53;2.22;;;11.20;99.90;;;;;;5074262;28;20127;-68
2023/11/10 09:26:28;;;;;;;6.03;2.10;;;11.40;99.90;;;;;;5074410;28;20025;-68
2023/11/10 09:28:54;;;;;;;4.00;1.70;;;11.40;99.90;;;;;;5073835;28;20028;-69
2023/11/10 09:31:20;;;;;;;5.20;2.35;;;11.20;99.90;;;;;;5074302;28;20486;-68
2023/11/10 09:33:46;;;;;;;4.55;1.95;;;11.10;99.90;;;;;;5074383;28;20024;-68
2023/11/10 09:36:11;;;;;;;6.05;2.03;;;11.10;99.90;;;;;;5073306;28;20081;-68
2023/11/10 09:38:37;;;;;;;6.05;2.40;;;11.10;99.90;;;;;;5074013;28;20073;-68
2023/11/10 09:41:03;;;;;;;6.55;2.60;;;11.10;99.90;;;;;;5073294;28;20024;-68
2023/11/10 09:43:30;;;;;;;4.75;2.45;;;11.20;99.90;;;;;;5074556;28;20480;-69
2023/11/10 09:46:01;;;;;;;3.92;2.08;;;11.20;99.90;;;;;;5073645;28;20378;-68
2023/11/10 09:48:27;;;;;;;5.18;1.80;;;11.10;99.90;;;;;;5074034;28;20093;-68
2023/11/10 09:50:55;;;;;;;4.28;1.55;;;11.50;99.90;;;;;;5074264;28;20035;-68
2023/11/10 09:53:22;;;;;;;5.10;2.10;;;11.80;99.90;;;;;;5074130;28;20529;-68
2023/11/10 09:55:49;;;;;;;7.40;2.00;;;11.40;51.00;;;;;;5073437;28;20503;-68
2023/11/10 09:58:15;;;;;;;5.88;1.85;;;11.10;99.90;;;;;;5073802;28;20020;-67
2023/11/10 10:00:42;;;;;;;4.40;1.50;;;11.00;99.90;;;;;;5073352;28;20051;-68
2023/11/10 10:03:08;;;;;;;4.97;2.00;;;10.70;99.90;;;;;;5073472;28;20055;-68
2023/11/10 10:05:34;;;;;;;4.63;1.67;;;11.10;99.90;;;;;;5073813;28;20467;-68
2023/11/10 10:08:00;;;;;;;6.80;2.08;;;11.20;99.90;;;;;;5074105;28;20035;-68
2023/11/10 10:10:27;;;;;;;5.72;1.52;;;11.60;1.00;;;;;;5073986;28;20064;-68
2023/11/10 10:12:53;;;;;;;6.68;1.60;;;12.00;1.00;;;;;;5075909;28;20025;-68
2023/11/10 10:15:29;;;;;;;3.00;1.35;;;12.20;1.00;;;;;;5077518;28;20035;-68
2023/11/10 10:18:02;;;;;;;6.05;1.20;;;12.20;99.90;;;;;;5077449;28;20102;-69
2023/11/10 10:20:28;;;;;;;4.97;1.73;;;12.20;99.90;;;;;;5077552;28;20063;-68
2023/11/10 10:22:54;;;;;;;4.88;1.30;;;12.40;99.90;;;;;;5077698;28;20032;-67
2023/11/10 10:25:20;;;;;;;5.38;1.33;;;12.50;99.90;;;;;;5077812;28;20123;-68
2023/11/10 10:27:47;;;;;;;3.13;1.30;;;12.50;99.90;;;;;;5077742;28;20032;-68
2023/11/10 10:30:12;;;;;;;5.70;1.17;;;12.90;99.90;;;;;;5076896;28;20028;-68
2023/11/10 10:32:38;;;;;;;4.72;1.27;;;13.30;1.00;;;;;;5077745;28;20558;-68
2023/11/10 10:35:04;;;;;;;3.15;1.15;;;13.80;99.90;;;;;;5076527;28;20028;-68
2023/11/10 10:37:31;;;;;;;5.72;1.23;;;13.80;1.00;;;;;;5077130;28;20139;-68
2023/11/10 10:40:00;;;;;;;5.93;1.40;;;13.70;99.90;;;;;;5077460;28;20167;-68
2023/11/10 10:42:31;;;;;;;2.53;1.20;;;13.30;99.90;;;;;;5076182;28;20031;-68
2023/11/10 10:44:58;;;;;;;4.65;1.20;;;13.50;1.00;;;;;;5076067;28;20032;-68
2023/11/10 10:47:25;;;;;;;3.22;1.00;;;13.10;99.90;;;;;;5076599;28;20102;-67
2023/11/10 10:49:51;;;;;;;4.25;1.20;;;12.80;1.00;;;;;;5077107;28;20020;-67
2023/11/10 10:52:18;;;;;;;4.53;1.17;;;12.50;99.90;;;;;;5076549;28;20470;-67
2023/11/10 10:54:44;;;;;;;5.03;1.48;;;12.20;1.00;;;;;;5076484;28;20032;-67
2023/11/10 10:57:13;;;;;;;3.70;1.38;;;12.10;1.00;;;;;;5075835;28;20412;-67
2023/11/10 10:59:40;;;;;;;5.63;1.45;;;11.40;99.90;;;;;;5076235;28;20390;-67
2023/11/10 11:02:08;;;;;;;6.43;1.55;;;11.20;1.00;;;;;;5076805;28;20178;-67
2023/11/10 11:04:53;;;;;;;7.18;1.55;;;11.10;64.00;;;;;;5077108;28;20025;-67
2023/11/10 11:07:32;;;;;;;4.95;1.52;;;11.00;1.00;;;;;;5076833;28;20219;-67
2023/11/10 11:13:34;;;;;;;6.80;1.65;;;10.90;99.90;;;;;;5111715;27;20392;-68
2023/11/10 11:16:32;;;;;;;5.68;1.33;;;10.80;1.00;;;;;;5111299;28;20119;-67
2023/11/10 11:19:29;;;;;;;4.07;1.40;;;11.00;1.00;;;;;;5111213;28;20031;-67
2023/11/10 11:21:56;;;;;;;6.75;1.48;;;11.00;1.00;;;;;;5111129;28;20024;-67
2023/11/10 11:24:22;;;;;;;4.85;1.45;;;10.90;1.00;;;;;;5111414;28;20028;-67
2023/11/10 11:27:06;;;;;;;7.22;2.10;;;11.20;99.90;;;;;;5111033;28;20111;-67
2023/11/10 11:29:40;;;;;;;4.50;1.92;;;11.50;90.70;;;;;;5110949;28;20019;-67
2023/11/10 11:32:12;;;;;;;8.95;1.52;;;11.90;92.80;;;;;;5111245;28;20031;-67
2023/11/10 11:34:48;;;;;;;7.82;1.75;;;11.60;1.00;;;;;;5111507;28;20552;-67
2023/11/10 11:37:16;;;;;;;7.00;1.30;;;11.60;1.00;;;;;;5111388;28;20031;-67
2023/11/10 11:39:42;;;;;;;9.30;1.83;;;11.10;99.90;;;;;;5111686;28;20461;-67
2023/11/10 11:42:07;;;;;;;6.47;1.63;;;11.10;1.00;;;;;;5111486;28;20047;-66
2023/11/10 11:44:35;;;;;;;8.70;1.77;;;11.20;1.00;;;;;;5111299;28;20043;-67
2023/11/10 11:47:07;;;;;;;7.70;1.73;;;11.20;45.30;;;;;;5110864;28;20023;-67
2023/11/10 11:49:34;;;;;;;6.53;1.40;;;11.20;1.00;;;;;;5111130;28;20027;-67
2023/11/10 11:52:03;;;;;;;6.07;1.58;;;11.10;99.90;;;;;;5110402;28;20477;-67
2023/11/10 11:54:28;;;;;;;3.65;1.38;;;11.10;1.00;;;;;;5110219;28;20016;-67
2023/11/10 11:56:55;;;;;;;4.10;1.27;;;11.10;1.00;;;;;;5110406;28;20362;-67
2023/11/10 11:59:21;;;;;;;4.88;1.65;;;11.20;99.90;;;;;;5110583;28;20434;-67
2023/11/10 12:01:47;;;;;;;6.47;1.90;;;11.30;99.90;;;;;;5110704;28;20032;-68
2023/11/10 12:04:13;;;;;;;6.25;1.77;;;11.30;99.90;;;;;;5110829;28;20024;-69
2023/11/10 12:06:40;;;;;;;6.53;1.50;;;11.20;1.00;;;;;;5110961;28;20111;-69
2023/11/10 12:09:06;;;;;;;4.63;1.20;;;11.10;99.90;;;;;;5110930;28;20411;-68
2023/11/10 12:11:35;;;;;;;6.38;1.50;;;11.10;1.00;;;;;;5110054;28;20048;-68
2023/11/10 12:14:05;;;;;;;4.88;1.65;;;11.20;2.00;;;;;;5109953;28;20020;-67
2023/11/10 12:16:33;;;;;;;8.25;1.70;;;11.10;99.90;;;;;;5109949;28;20028;-68
2023/11/10 12:19:03;;;;;;;4.30;1.52;;;11.00;88.00;;;;;;5110250;28;20080;-68
2023/11/10 12:21:30;;;;;;;4.15;1.50;;;11.00;99.90;;;;;;5109965;28;20386;-67
2023/11/10 12:23:59;;;;;;;5.72;1.45;;;11.00;99.90;;;;;;5099085;28;20150;-67
2023/11/10 12:26:27;;;;;;;6.45;1.40;;;11.10;1.00;;;;;;5097275;28;20032;-68
2023/11/10 12:28:53;;;;;;;6.13;1.35;;;11.20;99.90;;;;;;5096870;28;20024;-68
2023/11/10 12:31:19;;;;;;;6.57;1.30;;;11.80;1.00;;;;;;5096845;28;20374;-68
2023/11/10 12:33:45;;;;;;;5.63;1.23;;;10.80;1.00;;;;;;5095876;28;20024;-68
2023/11/10 12:36:11;;;;;;;6.70;1.65;;;10.80;99.90;;;;;;5095355;28;20107;-69
2023/11/10 12:38:37;;;;;;;5.63;1.40;;;10.90;99.90;;;;;;5095798;28;20035;-68
2023/11/10 12:41:09;;;;;;;6.07;1.23;;;10.90;1.40;;;;;;5095599;28;20477;-68
2023/11/10 12:43:35;;;;;;;4.70;1.30;;;10.90;1.00;;;;;;5096459;28;20551;-68
2023/11/10 12:46:09;;;;;;;5.28;1.52;;;10.80;99.90;;;;;;5096212;28;20071;-68
2023/11/10 12:48:35;;;;;;;4.90;1.02;;;10.80;1.00;;;;;;5096420;28;20020;-68
2023/11/10 12:51:02;;;;;;;3.35;1.58;;;10.80;1.00;;;;;;5095716;28;20028;-68
2023/11/10 12:53:28;;;;;;;6.78;1.17;;;10.70;18.00;;;;;;5095681;28;20051;-68
2023/11/10 12:55:54;;;;;;;5.45;1.20;;;10.70;99.90;;;;;;5095584;28;20055;-68